sensor_id;sensor_type;location;lat;lon;timestamp;P1;durP1;ratioP1;P2;durP2;ratioP2
8777;SDS011;4425;50.872;4.712;2023-04-01T00:02:16;4.17;;;1.60;;
8777;SDS011;4425;50.872;4.712;2023-04-01T00:04:43;3.00;;;1.40;;
8777;SDS011;4425;50.872;4.712;2023-04-01T00:07:12;3.37;;;1.77;;
8777;SDS011;4425;50.872;4.712;2023-04-01T00:09:39;5.33;;;1.90;;
8777;SDS011;4425;50.872;4.712;2023-04-01T00:12:06;3.87;;;1.40;;
8777;SDS011;4425;50.872;4.712;2023-04-01T00:14:34;3.97;;;1.50;;
8777;SDS011;4425;50.872;4.712;2023-04-01T00:17:02;2.87;;;1.70;;
8777;SDS011;4425;50.872;4.712;2023-04-01T00:19:30;3.93;;;1.77;;
8777;SDS011;4425;50.872;4.712;2023-04-01T00:21:57;2.40;;;1.57;;
8777;SDS011;4425;50.872;4.712;2023-04-01T00:24:26;3.10;;;1.50;;
8777;SDS011;4425;50.872;4.712;2023-04-01T00:26:53;4.73;;;1.57;;
8777;SDS011;4425;50.872;4.712;2023-04-01T00:29:20;3.03;;;1.73;;
8777;SDS011;4425;50.872;4.712;2023-04-01T00:31:49;3.87;;;1.60;;
8777;SDS011;4425;50.872;4.712;2023-04-01T00:34:16;2.27;;;1.37;;
8777;SDS011;4425;50.872;4.712;2023-04-01T00:36:43;5.80;;;1.90;;
8777;SDS011;4425;50.872;4.712;2023-04-01T00:39:11;2.33;;;1.57;;
8777;SDS011;4425;50.872;4.712;2023-04-01T00:41:44;3.70;;;1.50;;
8777;SDS011;4425;50.872;4.712;2023-04-01T00:44:12;5.40;;;1.50;;
8777;SDS011;4425;50.872;4.712;2023-04-01T00:46:43;1.40;;;1.30;;
8777;SDS011;4425;50.872;4.712;2023-04-01T00:49:10;4.17;;;1.70;;
8777;SDS011;4425;50.872;4.712;2023-04-01T00:51:37;2.27;;;1.43;;
8777;SDS011;4425;50.872;4.712;2023-04-01T00:54:07;4.90;;;1.47;;
8777;SDS011;4425;50.872;4.712;2023-04-01T00:56:36;3.30;;;1.73;;
8777;SDS011;4425;50.872;4.712;2023-04-01T00:59:08;3.07;;;1.40;;
8777;SDS011;4425;50.872;4.712;2023-04-01T01:01:39;2.77;;;1.33;;
8777;SDS011;4425;50.872;4.712;2023-04-01T01:04:07;2.37;;;1.50;;
8777;SDS011;4425;50.872;4.712;2023-04-01T01:06:46;2.17;;;1.33;;
8777;SDS011;4425;50.872;4.712;2023-04-01T01:09:23;2.17;;;1.43;;
8777;SDS011;4425;50.872;4.712;2023-04-01T01:11:59;1.80;;;1.30;;
8777;SDS011;4425;50.872;4.712;2023-04-01T01:14:39;3.50;;;1.40;;
8777;SDS011;4425;50.872;4.712;2023-04-01T01:17:18;1.23;;;1.13;;
8777;SDS011;4425;50.872;4.712;2023-04-01T01:20:07;1.33;;;1.20;;
8777;SDS011;4425;50.872;4.712;2023-04-01T01:32:14;1.90;;;1.30;;
8777;SDS011;4425;50.872;4.712;2023-04-01T01:34:51;1.40;;;1.10;;
8777;SDS011;4425;50.872;4.712;2023-04-01T01:37:23;1.63;;;1.30;;
8777;SDS011;4425;50.872;4.712;2023-04-01T01:39:53;2.27;;;1.23;;
8777;SDS011;4425;50.872;4.712;2023-04-01T01:42:22;2.23;;;1.20;;
8777;SDS011;4425;50.872;4.712;2023-04-01T01:44:52;1.37;;;1.23;;
8777;SDS011;4425;50.872;4.712;2023-04-01T01:47:21;1.47;;;1.03;;
8777;SDS011;4425;50.872;4.712;2023-04-01T01:49:49;1.20;;;1.10;;
8777;SDS011;4425;50.872;4.712;2023-04-01T01:52:18;3.70;;;1.40;;
8777;SDS011;4425;50.872;4.712;2023-04-01T01:54:50;1.70;;;1.17;;
8777;SDS011;4425;50.872;4.712;2023-04-01T01:57:19;1.20;;;1.13;;
8777;SDS011;4425;50.872;4.712;2023-04-01T01:59:49;1.30;;;1.23;;
8777;SDS011;4425;50.872;4.712;2023-04-01T02:02:21;1.50;;;1.03;;
8777;SDS011;4425;50.872;4.712;2023-04-01T02:04:50;1.37;;;1.07;;
8777;SDS011;4425;50.872;4.712;2023-04-01T02:07:19;3.13;;;1.20;;
8777;SDS011;4425;50.872;4.712;2023-04-01T02:09:51;2.70;;;1.30;;
8777;SDS011;4425;50.872;4.712;2023-04-01T02:12:18;1.20;;;1.20;;
8777;SDS011;4425;50.872;4.712;2023-04-01T02:14:49;1.40;;;1.30;;
8777;SDS011;4425;50.872;4.712;2023-04-01T02:17:20;2.50;;;1.30;;
8777;SDS011;4425;50.872;4.712;2023-04-01T02:19:49;2.17;;;1.40;;
8777;SDS011;4425;50.872;4.712;2023-04-01T02:22:23;1.97;;;1.50;;
8777;SDS011;4425;50.872;4.712;2023-04-01T02:24:54;2.80;;;1.53;;
8777;SDS011;4425;50.872;4.712;2023-04-01T02:27:25;2.20;;;1.80;;
8777;SDS011;4425;50.872;4.712;2023-04-01T02:29:52;3.53;;;1.67;;
8777;SDS011;4425;50.872;4.712;2023-04-01T02:32:19;3.07;;;2.10;;
8777;SDS011;4425;50.872;4.712;2023-04-01T02:34:47;2.23;;;2.13;;
8777;SDS011;4425;50.872;4.712;2023-04-01T02:37:15;2.47;;;2.00;;
8777;SDS011;4425;50.872;4.712;2023-04-01T02:39:42;2.50;;;2.20;;
8777;SDS011;4425;50.872;4.712;2023-04-01T02:42:11;2.77;;;2.57;;
8777;SDS011;4425;50.872;4.712;2023-04-01T02:44:39;5.03;;;3.30;;
8777;SDS011;4425;50.872;4.712;2023-04-01T02:47:06;3.40;;;3.07;;
8777;SDS011;4425;50.872;4.712;2023-04-01T02:49:34;2.70;;;2.50;;
8777;SDS011;4425;50.872;4.712;2023-04-01T02:52:01;3.90;;;2.40;;
8777;SDS011;4425;50.872;4.712;2023-04-01T02:54:28;6.13;;;2.40;;
8777;SDS011;4425;50.872;4.712;2023-04-01T02:56:55;2.83;;;2.33;;
8777;SDS011;4425;50.872;4.712;2023-04-01T02:59:23;6.57;;;2.50;;
8777;SDS011;4425;50.872;4.712;2023-04-01T03:01:50;4.40;;;2.90;;
8777;SDS011;4425;50.872;4.712;2023-04-01T03:04:17;4.80;;;2.93;;
8777;SDS011;4425;50.872;4.712;2023-04-01T03:06:44;3.57;;;3.00;;
8777;SDS011;4425;50.872;4.712;2023-04-01T03:09:11;3.63;;;2.63;;
8777;SDS011;4425;50.872;4.712;2023-04-01T03:11:39;3.80;;;2.60;;
8777;SDS011;4425;50.872;4.712;2023-04-01T03:14:06;2.80;;;2.50;;
8777;SDS011;4425;50.872;4.712;2023-04-01T03:16:35;3.70;;;2.20;;
8777;SDS011;4425;50.872;4.712;2023-04-01T03:19:02;4.87;;;2.47;;
8777;SDS011;4425;50.872;4.712;2023-04-01T03:21:29;4.20;;;2.40;;
8777;SDS011;4425;50.872;4.712;2023-04-01T03:23:56;4.00;;;2.40;;
8777;SDS011;4425;50.872;4.712;2023-04-01T03:26:23;2.40;;;2.20;;
8777;SDS011;4425;50.872;4.712;2023-04-01T03:28:51;5.33;;;3.07;;
8777;SDS011;4425;50.872;4.712;2023-04-01T03:31:18;5.20;;;2.50;;
8777;SDS011;4425;50.872;4.712;2023-04-01T03:33:47;5.67;;;2.70;;
8777;SDS011;4425;50.872;4.712;2023-04-01T03:36:15;4.50;;;3.03;;
8777;SDS011;4425;50.872;4.712;2023-04-01T03:38:43;8.00;;;3.30;;
8777;SDS011;4425;50.872;4.712;2023-04-01T03:41:11;3.00;;;2.70;;
8777;SDS011;4425;50.872;4.712;2023-04-01T03:43:39;5.53;;;2.90;;
8777;SDS011;4425;50.872;4.712;2023-04-01T03:46:07;5.80;;;3.07;;
8777;SDS011;4425;50.872;4.712;2023-04-01T03:48:34;4.67;;;3.00;;
8777;SDS011;4425;50.872;4.712;2023-04-01T03:51:02;5.13;;;3.63;;
8777;SDS011;4425;50.872;4.712;2023-04-01T03:53:33;6.60;;;3.30;;
8777;SDS011;4425;50.872;4.712;2023-04-01T03:56:03;6.53;;;4.00;;
8777;SDS011;4425;50.872;4.712;2023-04-01T03:58:30;6.50;;;4.37;;
8777;SDS011;4425;50.872;4.712;2023-04-01T04:00:57;5.80;;;4.43;;
8777;SDS011;4425;50.872;4.712;2023-04-01T04:03:24;5.13;;;4.60;;
8777;SDS011;4425;50.872;4.712;2023-04-01T04:05:52;8.43;;;4.63;;
8777;SDS011;4425;50.872;4.712;2023-04-01T04:08:20;9.30;;;4.70;;
8777;SDS011;4425;50.872;4.712;2023-04-01T04:10:47;9.63;;;4.63;;
8777;SDS011;4425;50.872;4.712;2023-04-01T04:13:20;5.77;;;5.10;;
8777;SDS011;4425;50.872;4.712;2023-04-01T04:15:47;8.60;;;5.30;;
8777;SDS011;4425;50.872;4.712;2023-04-01T04:18:14;7.93;;;5.50;;
8777;SDS011;4425;50.872;4.712;2023-04-01T04:20:43;11.40;;;5.30;;
8777;SDS011;4425;50.872;4.712;2023-04-01T04:23:12;7.70;;;6.20;;
8777;SDS011;4425;50.872;4.712;2023-04-01T04:25:40;11.17;;;5.53;;
8777;SDS011;4425;50.872;4.712;2023-04-01T04:28:07;7.23;;;5.60;;
8777;SDS011;4425;50.872;4.712;2023-04-01T04:30:34;9.50;;;6.17;;
8777;SDS011;4425;50.872;4.712;2023-04-01T04:33:01;8.03;;;5.57;;
8777;SDS011;4425;50.872;4.712;2023-04-01T04:35:28;10.30;;;5.23;;
8777;SDS011;4425;50.872;4.712;2023-04-01T04:37:55;8.20;;;5.50;;
8777;SDS011;4425;50.872;4.712;2023-04-01T04:40:21;8.40;;;5.67;;
8777;SDS011;4425;50.872;4.712;2023-04-01T04:42:50;10.10;;;5.53;;
8777;SDS011;4425;50.872;4.712;2023-04-01T04:45:18;6.20;;;4.80;;
8777;SDS011;4425;50.872;4.712;2023-04-01T04:47:45;6.43;;;4.67;;
8777;SDS011;4425;50.872;4.712;2023-04-01T04:50:12;5.10;;;4.53;;
8777;SDS011;4425;50.872;4.712;2023-04-01T04:52:39;7.00;;;4.93;;
8777;SDS011;4425;50.872;4.712;2023-04-01T04:55:06;5.17;;;4.57;;
8777;SDS011;4425;50.872;4.712;2023-04-01T04:57:34;6.27;;;4.80;;
8777;SDS011;4425;50.872;4.712;2023-04-01T05:00:02;5.10;;;4.17;;
8777;SDS011;4425;50.872;4.712;2023-04-01T05:02:30;5.80;;;4.17;;
8777;SDS011;4425;50.872;4.712;2023-04-01T05:04:57;3.60;;;3.30;;
8777;SDS011;4425;50.872;4.712;2023-04-01T05:07:24;4.63;;;3.70;;
8777;SDS011;4425;50.872;4.712;2023-04-01T05:09:51;3.50;;;3.20;;
8777;SDS011;4425;50.872;4.712;2023-04-01T05:12:18;3.43;;;3.20;;
8777;SDS011;4425;50.872;4.712;2023-04-01T05:14:45;3.73;;;3.40;;
8777;SDS011;4425;50.872;4.712;2023-04-01T05:17:13;3.30;;;3.00;;
8777;SDS011;4425;50.872;4.712;2023-04-01T05:19:40;3.00;;;2.80;;
8777;SDS011;4425;50.872;4.712;2023-04-01T05:22:07;3.53;;;3.03;;
8777;SDS011;4425;50.872;4.712;2023-04-01T05:24:34;3.33;;;2.80;;
8777;SDS011;4425;50.872;4.712;2023-04-01T05:27:01;4.03;;;2.40;;
8777;SDS011;4425;50.872;4.712;2023-04-01T05:29:28;3.03;;;2.60;;
8777;SDS011;4425;50.872;4.712;2023-04-01T05:31:55;3.03;;;2.73;;
8777;SDS011;4425;50.872;4.712;2023-04-01T05:34:24;3.13;;;2.70;;
8777;SDS011;4425;50.872;4.712;2023-04-01T05:36:51;2.97;;;2.73;;
8777;SDS011;4425;50.872;4.712;2023-04-01T05:39:18;2.70;;;2.60;;
8777;SDS011;4425;50.872;4.712;2023-04-01T05:41:44;2.50;;;2.40;;
8777;SDS011;4425;50.872;4.712;2023-04-01T05:44:12;2.07;;;1.97;;
8777;SDS011;4425;50.872;4.712;2023-04-01T05:46:39;2.13;;;1.93;;
8777;SDS011;4425;50.872;4.712;2023-04-01T05:49:06;2.20;;;2.10;;
8777;SDS011;4425;50.872;4.712;2023-04-01T05:51:35;2.20;;;2.20;;
8777;SDS011;4425;50.872;4.712;2023-04-01T05:54:03;2.00;;;1.97;;
8777;SDS011;4425;50.872;4.712;2023-04-01T05:56:31;3.03;;;2.63;;
8777;SDS011;4425;50.872;4.712;2023-04-01T05:58:58;3.47;;;3.20;;
8777;SDS011;4425;50.872;4.712;2023-04-01T06:01:25;2.63;;;2.53;;
8777;SDS011;4425;50.872;4.712;2023-04-01T06:03:52;3.07;;;2.90;;
8777;SDS011;4425;50.872;4.712;2023-04-01T06:06:23;3.20;;;3.00;;
8777;SDS011;4425;50.872;4.712;2023-04-01T06:08:52;3.47;;;3.20;;
8777;SDS011;4425;50.872;4.712;2023-04-01T06:11:23;4.17;;;3.37;;
8777;SDS011;4425;50.872;4.712;2023-04-01T06:14:01;3.60;;;3.30;;
8777;SDS011;4425;50.872;4.712;2023-04-01T06:16:39;3.37;;;2.90;;
8777;SDS011;4425;50.872;4.712;2023-04-01T06:19:18;3.77;;;3.47;;
8777;SDS011;4425;50.872;4.712;2023-04-01T06:21:58;4.43;;;4.03;;
8777;SDS011;4425;50.872;4.712;2023-04-01T06:24:39;5.37;;;4.30;;
8777;SDS011;4425;50.872;4.712;2023-04-01T06:27:16;5.67;;;4.53;;
8777;SDS011;4425;50.872;4.712;2023-04-01T06:29:58;5.87;;;4.80;;
8777;SDS011;4425;50.872;4.712;2023-04-01T06:32:45;5.30;;;4.80;;
8777;SDS011;4425;50.872;4.712;2023-04-01T06:35:31;5.30;;;4.60;;
8777;SDS011;4425;50.872;4.712;2023-04-01T06:44:09;5.40;;;4.90;;
8777;SDS011;4425;50.872;4.712;2023-04-01T06:46:44;6.33;;;5.17;;
8777;SDS011;4425;50.872;4.712;2023-04-01T06:52:02;5.30;;;4.80;;
8777;SDS011;4425;50.872;4.712;2023-04-01T06:54:40;5.57;;;5.07;;
8777;SDS011;4425;50.872;4.712;2023-04-01T06:57:17;7.20;;;5.27;;
8777;SDS011;4425;50.872;4.712;2023-04-01T06:59:50;5.37;;;4.97;;
8777;SDS011;4425;50.872;4.712;2023-04-01T07:02:24;5.70;;;5.10;;
8777;SDS011;4425;50.872;4.712;2023-04-01T07:04:59;6.10;;;5.17;;
8777;SDS011;4425;50.872;4.712;2023-04-01T07:07:29;8.07;;;5.77;;
8777;SDS011;4425;50.872;4.712;2023-04-01T07:10:02;5.63;;;5.17;;
8777;SDS011;4425;50.872;4.712;2023-04-01T07:12:38;5.27;;;4.80;;
8777;SDS011;4425;50.872;4.712;2023-04-01T07:15:13;5.07;;;4.60;;
8777;SDS011;4425;50.872;4.712;2023-04-01T07:17:45;5.30;;;4.80;;
8777;SDS011;4425;50.872;4.712;2023-04-01T07:20:17;7.83;;;4.63;;
8777;SDS011;4425;50.872;4.712;2023-04-01T07:22:49;5.53;;;4.20;;
8777;SDS011;4425;50.872;4.712;2023-04-01T07:25:21;4.00;;;3.70;;
8777;SDS011;4425;50.872;4.712;2023-04-01T07:27:53;4.80;;;3.93;;
8777;SDS011;4425;50.872;4.712;2023-04-01T07:30:24;4.60;;;4.20;;
8777;SDS011;4425;50.872;4.712;2023-04-01T07:32:56;3.63;;;2.90;;
8777;SDS011;4425;50.872;4.712;2023-04-01T07:35:30;2.27;;;2.17;;
8777;SDS011;4425;50.872;4.712;2023-04-01T07:38:08;2.00;;;1.90;;
8777;SDS011;4425;50.872;4.712;2023-04-01T07:40:43;1.63;;;1.50;;
8777;SDS011;4425;50.872;4.712;2023-04-01T07:43:23;1.70;;;1.60;;
8777;SDS011;4425;50.872;4.712;2023-04-01T07:46:10;1.70;;;1.60;;
8777;SDS011;4425;50.872;4.712;2023-04-01T07:48:49;1.57;;;1.47;;
8777;SDS011;4425;50.872;4.712;2023-04-01T07:51:23;2.27;;;1.60;;
8777;SDS011;4425;50.872;4.712;2023-04-01T07:53:58;2.40;;;2.23;;
8777;SDS011;4425;50.872;4.712;2023-04-01T07:56:34;2.90;;;2.70;;
8777;SDS011;4425;50.872;4.712;2023-04-01T07:59:11;2.43;;;2.30;;
8777;SDS011;4425;50.872;4.712;2023-04-01T08:01:46;2.43;;;2.23;;
8777;SDS011;4425;50.872;4.712;2023-04-01T08:04:23;2.00;;;1.90;;
8777;SDS011;4425;50.872;4.712;2023-04-01T08:07:03;1.53;;;1.53;;
8777;SDS011;4425;50.872;4.712;2023-04-01T08:09:37;1.23;;;1.23;;
8777;SDS011;4425;50.872;4.712;2023-04-01T08:12:13;1.10;;;1.10;;
8777;SDS011;4425;50.872;4.712;2023-04-01T08:14:58;1.70;;;1.10;;
8777;SDS011;4425;50.872;4.712;2023-04-01T08:17:35;1.00;;;1.00;;
8777;SDS011;4425;50.872;4.712;2023-04-01T08:20:14;1.10;;;1.10;;
8777;SDS011;4425;50.872;4.712;2023-04-01T08:22:57;1.00;;;1.00;;
8777;SDS011;4425;50.872;4.712;2023-04-01T08:25:27;0.87;;;0.87;;
8777;SDS011;4425;50.872;4.712;2023-04-01T08:27:57;0.90;;;0.90;;
8777;SDS011;4425;50.872;4.712;2023-04-01T08:30:31;0.90;;;0.90;;
8777;SDS011;4425;50.872;4.712;2023-04-01T08:33:09;0.93;;;0.93;;
8777;SDS011;4425;50.872;4.712;2023-04-01T08:35:41;0.80;;;0.80;;
8777;SDS011;4425;50.872;4.712;2023-04-01T08:38:14;0.90;;;0.90;;
8777;SDS011;4425;50.872;4.712;2023-04-01T08:41:01;0.90;;;0.90;;
8777;SDS011;4425;50.872;4.712;2023-04-01T08:43:47;1.30;;;1.20;;
8777;SDS011;4425;50.872;4.712;2023-04-01T08:46:46;1.43;;;1.20;;
8777;SDS011;4425;50.872;4.712;2023-04-01T08:52:29;1.33;;;1.23;;
8777;SDS011;4425;50.872;4.712;2023-04-01T08:58:06;1.20;;;1.20;;
8777;SDS011;4425;50.872;4.712;2023-04-01T09:00:46;1.10;;;1.10;;
8777;SDS011;4425;50.872;4.712;2023-04-01T09:06:31;1.40;;;1.40;;
8777;SDS011;4425;50.872;4.712;2023-04-01T09:15:11;2.23;;;1.20;;
8777;SDS011;4425;50.872;4.712;2023-04-01T09:18:15;1.20;;;1.20;;
8777;SDS011;4425;50.872;4.712;2023-04-01T09:24:46;1.20;;;1.10;;
8777;SDS011;4425;50.872;4.712;2023-04-01T09:27:29;1.40;;;1.30;;
8777;SDS011;4425;50.872;4.712;2023-04-01T09:30:10;1.00;;;1.00;;
8777;SDS011;4425;50.872;4.712;2023-04-01T09:33:08;1.00;;;1.00;;
8777;SDS011;4425;50.872;4.712;2023-04-01T09:35:55;1.00;;;1.00;;
8777;SDS011;4425;50.872;4.712;2023-04-01T09:38:42;0.87;;;0.87;;
8777;SDS011;4425;50.872;4.712;2023-04-01T09:41:24;1.00;;;1.00;;
8777;SDS011;4425;50.872;4.712;2023-04-01T09:44:01;0.90;;;0.90;;
8777;SDS011;4425;50.872;4.712;2023-04-01T09:46:34;1.10;;;1.10;;
8777;SDS011;4425;50.872;4.712;2023-04-01T09:49:19;1.10;;;1.10;;
8777;SDS011;4425;50.872;4.712;2023-04-01T09:52:03;1.20;;;1.20;;
8777;SDS011;4425;50.872;4.712;2023-04-01T09:54:52;1.27;;;1.20;;
8777;SDS011;4425;50.872;4.712;2023-04-01T10:03:41;1.40;;;1.40;;
8777;SDS011;4425;50.872;4.712;2023-04-01T10:09:54;1.60;;;1.53;;
8777;SDS011;4425;50.872;4.712;2023-04-01T10:12:48;1.80;;;1.70;;
8777;SDS011;4425;50.872;4.712;2023-04-01T10:18:37;1.93;;;1.83;;
8777;SDS011;4425;50.872;4.712;2023-04-01T10:21:25;1.70;;;1.70;;
8777;SDS011;4425;50.872;4.712;2023-04-01T10:24:13;2.20;;;2.10;;
8777;SDS011;4425;50.872;4.712;2023-04-01T10:27:17;2.10;;;2.00;;
8777;SDS011;4425;50.872;4.712;2023-04-01T10:39:33;2.37;;;2.17;;
8777;SDS011;4425;50.872;4.712;2023-04-01T10:42:21;2.40;;;2.20;;
8777;SDS011;4425;50.872;4.712;2023-04-01T10:45:19;3.27;;;2.17;;
8777;SDS011;4425;50.872;4.712;2023-04-01T10:48:12;1.80;;;1.70;;
8777;SDS011;4425;50.872;4.712;2023-04-01T10:53:59;2.10;;;1.70;;
8777;SDS011;4425;50.872;4.712;2023-04-01T10:56:54;2.00;;;1.90;;
8777;SDS011;4425;50.872;4.712;2023-04-01T10:59:34;1.80;;;1.70;;
8777;SDS011;4425;50.872;4.712;2023-04-01T11:05:28;1.70;;;1.70;;
8777;SDS011;4425;50.872;4.712;2023-04-01T11:11:48;1.80;;;1.70;;
8777;SDS011;4425;50.872;4.712;2023-04-01T11:14:40;2.00;;;1.70;;
8777;SDS011;4425;50.872;4.712;2023-04-01T11:17:32;1.83;;;1.70;;
8777;SDS011;4425;50.872;4.712;2023-04-01T11:20:31;2.07;;;1.97;;
8777;SDS011;4425;50.872;4.712;2023-04-01T11:26:17;1.63;;;1.53;;
8777;SDS011;4425;50.872;4.712;2023-04-01T11:29:06;1.60;;;1.50;;
8777;SDS011;4425;50.872;4.712;2023-04-01T11:32:05;1.53;;;1.30;;
8777;SDS011;4425;50.872;4.712;2023-04-01T11:34:44;1.13;;;1.13;;
8777;SDS011;4425;50.872;4.712;2023-04-01T11:37:23;0.97;;;0.97;;
8777;SDS011;4425;50.872;4.712;2023-04-01T11:40:04;1.33;;;1.10;;
8777;SDS011;4425;50.872;4.712;2023-04-01T11:42:40;1.00;;;1.00;;
8777;SDS011;4425;50.872;4.712;2023-04-01T11:45:16;1.00;;;1.00;;
8777;SDS011;4425;50.872;4.712;2023-04-01T11:47:56;0.83;;;0.83;;
8777;SDS011;4425;50.872;4.712;2023-04-01T11:50:44;0.80;;;0.80;;
8777;SDS011;4425;50.872;4.712;2023-04-01T11:53:36;1.00;;;1.00;;
8777;SDS011;4425;50.872;4.712;2023-04-01T11:56:14;1.00;;;1.00;;
8777;SDS011;4425;50.872;4.712;2023-04-01T11:58:58;1.00;;;1.00;;
8777;SDS011;4425;50.872;4.712;2023-04-01T12:01:43;1.00;;;1.00;;
8777;SDS011;4425;50.872;4.712;2023-04-01T12:07:22;2.10;;;1.20;;
8777;SDS011;4425;50.872;4.712;2023-04-01T12:10:12;2.63;;;1.23;;
8777;SDS011;4425;50.872;4.712;2023-04-01T12:12:46;0.90;;;0.90;;
8777;SDS011;4425;50.872;4.712;2023-04-01T12:15:23;1.00;;;1.00;;
8777;SDS011;4425;50.872;4.712;2023-04-01T12:18:00;1.30;;;1.10;;
8777;SDS011;4425;50.872;4.712;2023-04-01T12:20:42;1.20;;;1.10;;
8777;SDS011;4425;50.872;4.712;2023-04-01T12:23:29;1.20;;;1.20;;
8777;SDS011;4425;50.872;4.712;2023-04-01T12:26:22;1.00;;;1.00;;
8777;SDS011;4425;50.872;4.712;2023-04-01T12:29:03;1.00;;;0.97;;
8777;SDS011;4425;50.872;4.712;2023-04-01T12:31:42;0.90;;;0.90;;
8777;SDS011;4425;50.872;4.712;2023-04-01T12:37:33;1.00;;;1.00;;
8777;SDS011;4425;50.872;4.712;2023-04-01T12:43:22;2.00;;;1.40;;
8777;SDS011;4425;50.872;4.712;2023-04-01T12:46:06;1.53;;;1.43;;
8777;SDS011;4425;50.872;4.712;2023-04-01T12:48:54;3.67;;;1.50;;
8777;SDS011;4425;50.872;4.712;2023-04-01T12:51:50;1.67;;;1.60;;
8777;SDS011;4425;50.872;4.712;2023-04-01T12:54:45;1.47;;;1.40;;
8777;SDS011;4425;50.872;4.712;2023-04-01T12:57:31;2.57;;;1.47;;
8777;SDS011;4425;50.872;4.712;2023-04-01T13:00:23;2.00;;;1.60;;
8777;SDS011;4425;50.872;4.712;2023-04-01T13:03:12;1.33;;;1.30;;
8777;SDS011;4425;50.872;4.712;2023-04-01T13:08:51;1.20;;;1.20;;
8777;SDS011;4425;50.872;4.712;2023-04-01T13:11:31;0.93;;;0.93;;
8777;SDS011;4425;50.872;4.712;2023-04-01T13:14:24;1.00;;;1.00;;
8777;SDS011;4425;50.872;4.712;2023-04-01T13:17:19;1.03;;;1.03;;
8777;SDS011;4425;50.872;4.712;2023-04-01T13:19:53;2.00;;;1.20;;
8777;SDS011;4425;50.872;4.712;2023-04-01T13:22:32;1.40;;;1.30;;
8777;SDS011;4425;50.872;4.712;2023-04-01T13:25:10;1.00;;;1.00;;
8777;SDS011;4425;50.872;4.712;2023-04-01T13:27:47;1.20;;;1.20;;
8777;SDS011;4425;50.872;4.712;2023-04-01T13:30:23;1.30;;;1.20;;
8777;SDS011;4425;50.872;4.712;2023-04-01T13:32:57;1.30;;;1.30;;
8777;SDS011;4425;50.872;4.712;2023-04-01T13:35:34;1.30;;;1.20;;
8777;SDS011;4425;50.872;4.712;2023-04-01T13:38:09;1.10;;;1.10;;
8777;SDS011;4425;50.872;4.712;2023-04-01T13:40:51;2.07;;;1.40;;
8777;SDS011;4425;50.872;4.712;2023-04-01T13:43:28;1.10;;;1.10;;
8777;SDS011;4425;50.872;4.712;2023-04-01T13:49:04;1.13;;;1.13;;
8777;SDS011;4425;50.872;4.712;2023-04-01T13:51:53;1.20;;;1.20;;
8777;SDS011;4425;50.872;4.712;2023-04-01T13:57:23;0.90;;;0.90;;
8777;SDS011;4425;50.872;4.712;2023-04-01T14:03:21;1.10;;;1.10;;
8777;SDS011;4425;50.872;4.712;2023-04-01T14:06:05;1.10;;;1.10;;
8777;SDS011;4425;50.872;4.712;2023-04-01T14:08:42;1.00;;;1.00;;
8777;SDS011;4425;50.872;4.712;2023-04-01T14:11:31;1.00;;;1.00;;
8777;SDS011;4425;50.872;4.712;2023-04-01T14:14:06;1.00;;;1.00;;
8777;SDS011;4425;50.872;4.712;2023-04-01T14:22:51;1.10;;;1.10;;
8777;SDS011;4425;50.872;4.712;2023-04-01T14:25:41;1.40;;;1.40;;
8777;SDS011;4425;50.872;4.712;2023-04-01T14:28:31;1.53;;;1.53;;
8777;SDS011;4425;50.872;4.712;2023-04-01T14:31:23;1.80;;;1.80;;
8777;SDS011;4425;50.872;4.712;2023-04-01T14:34:03;2.10;;;2.00;;
8777;SDS011;4425;50.872;4.712;2023-04-01T14:43:00;2.40;;;2.20;;
8777;SDS011;4425;50.872;4.712;2023-04-01T14:48:51;2.43;;;2.33;;
8777;SDS011;4425;50.872;4.712;2023-04-01T14:51:23;2.67;;;2.57;;
8777;SDS011;4425;50.872;4.712;2023-04-01T14:53:59;2.60;;;2.40;;
8777;SDS011;4425;50.872;4.712;2023-04-01T14:56:43;2.47;;;2.37;;
8777;SDS011;4425;50.872;4.712;2023-04-01T14:59:17;2.03;;;2.03;;
8777;SDS011;4425;50.872;4.712;2023-04-01T15:01:55;2.10;;;2.00;;
8777;SDS011;4425;50.872;4.712;2023-04-01T15:04:37;2.37;;;2.27;;
8777;SDS011;4425;50.872;4.712;2023-04-01T15:07:21;2.00;;;2.00;;
8777;SDS011;4425;50.872;4.712;2023-04-01T15:10:10;2.00;;;2.00;;
8777;SDS011;4425;50.872;4.712;2023-04-01T15:12:50;1.80;;;1.70;;
8777;SDS011;4425;50.872;4.712;2023-04-01T15:15:34;1.70;;;1.60;;
8777;SDS011;4425;50.872;4.712;2023-04-01T15:18:15;1.53;;;1.30;;
8777;SDS011;4425;50.872;4.712;2023-04-01T15:20:52;1.50;;;1.40;;
8777;SDS011;4425;50.872;4.712;2023-04-01T15:23:40;3.23;;;1.30;;
8777;SDS011;4425;50.872;4.712;2023-04-01T15:26:25;1.30;;;1.30;;
8777;SDS011;4425;50.872;4.712;2023-04-01T15:32:06;1.63;;;1.00;;
8777;SDS011;4425;50.872;4.712;2023-04-01T15:34:44;1.20;;;1.20;;
8777;SDS011;4425;50.872;4.712;2023-04-01T15:37:22;1.30;;;1.30;;
8777;SDS011;4425;50.872;4.712;2023-04-01T15:40:02;1.40;;;1.30;;
8777;SDS011;4425;50.872;4.712;2023-04-01T15:42:54;1.20;;;1.20;;
8777;SDS011;4425;50.872;4.712;2023-04-01T15:45:36;1.47;;;1.30;;
8777;SDS011;4425;50.872;4.712;2023-04-01T15:48:19;1.60;;;1.30;;
8777;SDS011;4425;50.872;4.712;2023-04-01T15:56:42;2.30;;;1.50;;
8777;SDS011;4425;50.872;4.712;2023-04-01T15:59:20;1.40;;;1.40;;
8777;SDS011;4425;50.872;4.712;2023-04-01T16:02:02;1.63;;;1.53;;
8777;SDS011;4425;50.872;4.712;2023-04-01T16:04:54;1.70;;;1.70;;
8777;SDS011;4425;50.872;4.712;2023-04-01T16:07:39;1.60;;;1.50;;
8777;SDS011;4425;50.872;4.712;2023-04-01T16:10:19;1.80;;;1.60;;
8777;SDS011;4425;50.872;4.712;2023-04-01T16:13:03;1.93;;;1.83;;
8777;SDS011;4425;50.872;4.712;2023-04-01T16:15:44;1.80;;;1.70;;
8777;SDS011;4425;50.872;4.712;2023-04-01T16:21:24;2.10;;;2.00;;
8777;SDS011;4425;50.872;4.712;2023-04-01T16:24:05;1.60;;;1.50;;
8777;SDS011;4425;50.872;4.712;2023-04-01T16:26:43;1.73;;;1.63;;
8777;SDS011;4425;50.872;4.712;2023-04-01T16:29:17;1.40;;;1.37;;
8777;SDS011;4425;50.872;4.712;2023-04-01T16:31:53;1.50;;;1.40;;
8777;SDS011;4425;50.872;4.712;2023-04-01T16:34:25;1.60;;;1.50;;
8777;SDS011;4425;50.872;4.712;2023-04-01T16:37:00;1.40;;;1.30;;
8777;SDS011;4425;50.872;4.712;2023-04-01T16:39:33;2.10;;;1.50;;
8777;SDS011;4425;50.872;4.712;2023-04-01T16:42:15;1.50;;;1.40;;
8777;SDS011;4425;50.872;4.712;2023-04-01T16:44:53;1.33;;;1.30;;
8777;SDS011;4425;50.872;4.712;2023-04-01T16:47:27;1.60;;;1.50;;
8777;SDS011;4425;50.872;4.712;2023-04-01T16:49:58;1.93;;;1.70;;
8777;SDS011;4425;50.872;4.712;2023-04-01T16:52:43;2.43;;;2.20;;
8777;SDS011;4425;50.872;4.712;2023-04-01T16:55:24;1.80;;;1.80;;
8777;SDS011;4425;50.872;4.712;2023-04-01T16:58:01;2.20;;;2.10;;
8777;SDS011;4425;50.872;4.712;2023-04-01T17:00:29;1.97;;;1.97;;
8777;SDS011;4425;50.872;4.712;2023-04-01T17:03:10;2.30;;;1.90;;
8777;SDS011;4425;50.872;4.712;2023-04-01T17:05:49;3.30;;;2.30;;
8777;SDS011;4425;50.872;4.712;2023-04-01T17:08:29;2.20;;;2.10;;
8777;SDS011;4425;50.872;4.712;2023-04-01T17:11:04;2.47;;;2.10;;
8777;SDS011;4425;50.872;4.712;2023-04-01T17:13:44;2.20;;;2.00;;
8777;SDS011;4425;50.872;4.712;2023-04-01T17:16:25;1.93;;;1.83;;
8777;SDS011;4425;50.872;4.712;2023-04-01T17:19:05;4.33;;;2.27;;
8777;SDS011;4425;50.872;4.712;2023-04-01T17:21:49;1.80;;;1.80;;
8777;SDS011;4425;50.872;4.712;2023-04-01T17:24:35;2.17;;;2.07;;
8777;SDS011;4425;50.872;4.712;2023-04-01T17:27:14;2.40;;;2.30;;
8777;SDS011;4425;50.872;4.712;2023-04-01T17:29:57;2.67;;;2.47;;
8777;SDS011;4425;50.872;4.712;2023-04-01T17:32:39;2.50;;;2.30;;
8777;SDS011;4425;50.872;4.712;2023-04-01T17:35:16;2.60;;;2.50;;
8777;SDS011;4425;50.872;4.712;2023-04-01T17:37:53;2.83;;;2.57;;
8777;SDS011;4425;50.872;4.712;2023-04-01T17:40:34;2.90;;;2.70;;
8777;SDS011;4425;50.872;4.712;2023-04-01T17:43:12;2.70;;;2.60;;
8777;SDS011;4425;50.872;4.712;2023-04-01T17:45:49;2.70;;;2.60;;
8777;SDS011;4425;50.872;4.712;2023-04-01T17:48:23;2.70;;;2.60;;
8777;SDS011;4425;50.872;4.712;2023-04-01T17:51:05;3.17;;;2.80;;
8777;SDS011;4425;50.872;4.712;2023-04-01T17:53:42;2.80;;;2.70;;
8777;SDS011;4425;50.872;4.712;2023-04-01T17:56:18;2.80;;;2.70;;
8777;SDS011;4425;50.872;4.712;2023-04-01T17:58:52;2.90;;;2.70;;
8777;SDS011;4425;50.872;4.712;2023-04-01T18:01:30;3.20;;;3.00;;
8777;SDS011;4425;50.872;4.712;2023-04-01T18:04:08;2.93;;;2.83;;
8777;SDS011;4425;50.872;4.712;2023-04-01T18:06:50;3.00;;;2.80;;
8777;SDS011;4425;50.872;4.712;2023-04-01T18:09:38;3.17;;;3.07;;
8777;SDS011;4425;50.872;4.712;2023-04-01T18:12:17;3.40;;;3.20;;